Time;durP1;ratioP1;P1;durP2;ratioP2;P2;SDS_P1;SDS_P2;PMS_P1;PMS_P2;Temp;Humidity;BMP_temperature;BMP_pressure;BME280_temperature;BME280_humidity;BME280_pressure;Samples;Min_cycle;Max_cycle;Signal;HPM_P1;HPM_P2
2024/01/23 00:00:42;;;;;;;26.52;9.93;;;6.40;99.90;;;;;;5000612;28;20057;-76
2024/01/23 00:03:10;;;;;;;29.00;9.75;;;6.50;99.90;;;;;;4990074;28;20050;-75
2024/01/23 00:05:37;;;;;;;25.60;9.98;;;6.50;99.90;;;;;;4972381;28;20080;-76
2024/01/23 00:08:03;;;;;;;22.88;9.13;;;6.40;99.90;;;;;;4948262;28;20082;-77
2024/01/23 00:10:30;;;;;;;29.15;9.95;;;6.40;99.90;;;;;;4957068;28;21066;-77
2024/01/23 00:12:57;;;;;;;28.63;10.38;;;6.10;99.90;;;;;;4970452;28;20076;-76
2024/01/23 00:15:25;;;;;;;34.80;12.18;;;6.10;99.90;;;;;;4967620;28;20058;-76
2024/01/23 00:17:52;;;;;;;28.75;10.98;;;6.10;99.90;;;;;;4983405;28;20750;-76
2024/01/23 00:20:19;;;;;;;28.85;10.15;;;6.10;99.90;;;;;;4969242;28;20113;-74
2024/01/23 00:22:45;;;;;;;32.88;9.52;;;6.10;99.90;;;;;;4970891;28;20042;-74
2024/01/23 00:25:12;;;;;;;11.30;5.50;;;6.20;99.90;;;;;;4982356;28;20054;-74
2024/01/23 00:27:39;;;;;;;14.20;5.20;;;6.00;99.90;;;;;;4976397;28;20031;-76
2024/01/23 00:30:09;;;;;;;14.45;4.78;;;5.00;99.90;;;;;;4986473;28;20074;-76
2024/01/23 00:32:36;;;;;;;21.95;5.68;;;4.10;99.90;;;;;;4953090;28;20047;-76
2024/01/23 00:35:03;;;;;;;10.75;6.00;;;3.70;99.90;;;;;;4961218;28;20043;-78
2024/01/23 00:37:31;;;;;;;15.52;6.38;;;3.40;99.90;;;;;;4969397;28;20137;-77
2024/01/23 00:40:00;;;;;;;17.17;5.32;;;3.40;99.90;;;;;;4973243;28;20124;-77
2024/01/23 00:42:26;;;;;;;12.00;4.78;;;3.30;99.90;;;;;;4978647;28;20053;-76
2024/01/23 00:44:53;;;;;;;15.57;5.80;;;3.30;99.90;;;;;;4969641;28;20067;-77
2024/01/23 00:47:20;;;;;;;24.13;8.57;;;3.30;99.90;;;;;;4969093;28;20054;-79
2024/01/23 00:49:47;;;;;;;30.83;7.40;;;3.50;99.90;;;;;;4973140;28;20039;-77
2024/01/23 00:52:14;;;;;;;15.98;6.57;;;3.50;99.90;;;;;;4966435;28;20038;-75
2024/01/23 00:54:41;;;;;;;25.65;7.03;;;3.60;99.90;;;;;;4980369;28;20056;-76
2024/01/23 00:57:08;;;;;;;22.65;8.10;;;3.70;99.90;;;;;;4972323;28;20056;-77
2024/01/23 00:59:35;;;;;;;21.63;7.93;;;3.80;99.90;;;;;;4986210;28;20057;-76
2024/01/23 01:02:02;;;;;;;21.40;7.57;;;3.90;99.90;;;;;;4971051;28;20061;-76
2024/01/23 01:04:29;;;;;;;24.88;8.43;;;4.00;99.90;;;;;;4971066;28;20620;-79
2024/01/23 01:06:56;;;;;;;16.88;8.13;;;4.00;99.90;;;;;;4969281;28;20045;-77
2024/01/23 01:09:23;;;;;;;24.15;8.68;;;4.10;99.90;;;;;;4969944;28;20039;-76
2024/01/23 01:11:50;;;;;;;14.15;7.88;;;4.10;99.90;;;;;;4966642;28;20545;-77
2024/01/23 01:14:16;;;;;;;17.38;7.03;;;4.30;99.90;;;;;;4966082;28;20418;-77
2024/01/23 01:16:43;;;;;;;19.25;7.15;;;4.40;99.90;;;;;;4965604;28;20058;-77
2024/01/23 01:19:10;;;;;;;20.05;6.90;;;4.50;99.90;;;;;;4969070;28;20050;-77
2024/01/23 01:21:37;;;;;;;18.58;7.47;;;4.60;99.90;;;;;;4970971;28;20626;-77
2024/01/23 01:24:04;;;;;;;17.48;7.20;;;4.60;99.90;;;;;;4982743;28;20042;-76
2024/01/23 01:26:31;;;;;;;14.77;7.53;;;4.60;99.90;;;;;;4974188;28;20805;-76
2024/01/23 01:28:57;;;;;;;24.48;9.85;;;4.80;99.90;;;;;;4973480;28;20037;-76
2024/01/23 01:31:24;;;;;;;29.15;9.98;;;4.90;99.90;;;;;;4966455;28;20625;-76
2024/01/23 01:33:51;;;;;;;25.20;9.35;;;4.90;99.90;;;;;;4970372;28;20053;-76
2024/01/23 01:36:18;;;;;;;24.23;9.50;;;4.90;99.90;;;;;;4982930;28;20069;-76
2024/01/23 01:38:45;;;;;;;21.90;9.32;;;4.90;99.90;;;;;;4954955;28;20042;-76
2024/01/23 01:41:14;;;;;;;26.50;10.35;;;5.00;99.90;;;;;;4987240;28;20109;-75
2024/01/23 01:43:42;;;;;;;31.25;10.32;;;5.00;99.90;;;;;;4984856;28;20043;-74
2024/01/23 01:46:19;;;;;;;34.97;12.52;;;5.20;99.90;;;;;;4963294;28;20076;-76
2024/01/23 01:48:47;;;;;;;38.20;11.20;;;5.20;99.90;;;;;;4980020;28;20043;-74
2024/01/23 01:51:17;;;;;;;36.75;12.77;;;5.30;99.90;;;;;;4959986;28;20047;-75
2024/01/23 01:53:45;;;;;;;29.65;11.10;;;5.30;99.90;;;;;;4955284;28;20042;-76
2024/01/23 01:56:12;;;;;;;29.27;10.95;;;5.30;99.90;;;;;;4951528;28;20047;-76
2024/01/23 01:58:40;;;;;;;28.92;12.27;;;5.30;99.90;;;;;;4967422;28;20629;-76
2024/01/23 02:01:06;;;;;;;38.30;12.65;;;5.30;99.90;;;;;;4977430;28;20132;-76
2024/01/23 02:03:33;;;;;;;25.48;10.25;;;5.30;99.90;;;;;;4965880;28;20540;-76
2024/01/23 02:06:02;;;;;;;33.80;12.27;;;5.40;99.90;;;;;;4967512;28;20053;-76
2024/01/23 02:08:30;;;;;;;23.23;10.20;;;5.40;99.90;;;;;;4982871;28;20100;-76
2024/01/23 02:10:56;;;;;;;22.98;11.68;;;5.50;99.90;;;;;;4964038;28;20042;-75
2024/01/23 02:13:24;;;;;;;27.73;10.70;;;5.50;99.90;;;;;;4968167;28;20043;-74
2024/01/23 02:15:51;;;;;;;27.92;11.68;;;5.50;99.90;;;;;;4966652;28;20035;-74
2024/01/23 02:18:18;;;;;;;22.60;11.48;;;5.50;99.90;;;;;;4970079;28;20050;-75
2024/01/23 02:20:45;;;;;;;23.23;11.68;;;5.40;99.90;;;;;;4949541;28;20502;-76
2024/01/23 02:23:13;;;;;;;13.30;11.68;;;5.40;99.90;;;;;;4950891;28;20046;-76
2024/01/23 02:25:41;;;;;;;15.00;11.73;;;5.30;99.90;;;;;;4949983;28;20394;-75
2024/01/23 02:28:09;;;;;;;22.27;11.18;;;5.20;99.90;;;;;;4968881;28;20049;-75
2024/01/23 02:30:36;;;;;;;32.47;12.52;;;5.20;99.90;;;;;;4956458;28;20498;-75
2024/01/23 02:33:06;;;;;;;21.08;11.68;;;5.20;99.90;;;;;;4951027;28;20046;-76
2024/01/23 02:35:34;;;;;;;31.95;12.55;;;5.20;99.90;;;;;;4957159;28;20137;-75
2024/01/23 02:38:01;;;;;;;24.52;11.50;;;5.20;99.90;;;;;;4972990;28;20073;-74
2024/01/23 02:40:28;;;;;;;23.00;11.40;;;5.20;99.90;;;;;;4972143;28;20263;-75
2024/01/23 02:42:55;;;;;;;30.45;13.27;;;5.20;99.90;;;;;;4971567;28;20054;-76
2024/01/23 02:45:22;;;;;;;29.85;12.07;;;5.30;99.90;;;;;;4968714;28;20047;-75
2024/01/23 02:47:49;;;;;;;33.55;12.65;;;5.30;99.90;;;;;;4974189;28;20046;-76
2024/01/23 02:50:16;;;;;;;24.20;11.90;;;5.30;99.90;;;;;;4969417;28;20125;-74
2024/01/23 02:52:43;;;;;;;24.42;12.10;;;5.20;99.90;;;;;;4979723;28;20065;-74
2024/01/23 02:55:13;;;;;;;34.20;13.60;;;5.30;99.90;;;;;;4977149;28;20053;-74
2024/01/23 02:57:40;;;;;;;29.23;13.88;;;5.30;99.90;;;;;;4982031;28;20297;-74
2024/01/23 03:00:08;;;;;;;38.10;15.07;;;5.40;99.90;;;;;;4970969;28;20108;-75
2024/01/23 03:02:35;;;;;;;33.65;13.90;;;5.40;99.90;;;;;;4968535;28;20143;-75
2024/01/23 03:05:02;;;;;;;26.33;14.13;;;5.40;99.90;;;;;;4967649;28;20133;-74
2024/01/23 03:07:29;;;;;;;22.45;13.90;;;5.40;99.90;;;;;;4955090;28;20042;-75
2024/01/23 03:09:56;;;;;;;28.85;13.60;;;5.40;99.90;;;;;;4968791;28;20050;-74
2024/01/23 03:12:23;;;;;;;27.90;14.95;;;5.40;99.90;;;;;;4971252;28;20049;-74
2024/01/23 03:14:50;;;;;;;35.58;16.98;;;5.40;99.90;;;;;;4954154;28;20038;-74
2024/01/23 03:17:18;;;;;;;28.25;17.00;;;5.40;99.90;;;;;;4980665;28;20410;-75
2024/01/23 03:19:45;;;;;;;29.08;18.20;;;5.40;99.90;;;;;;4972070;28;20818;-75
2024/01/23 03:22:13;;;;;;;26.65;14.60;;;5.40;99.90;;;;;;4971461;28;20125;-74
2024/01/23 03:24:40;;;;;;;32.13;15.48;;;5.40;99.90;;;;;;4970236;28;20733;-76
2024/01/23 03:27:07;;;;;;;27.45;15.65;;;5.40;99.90;;;;;;4973757;28;20453;-75
2024/01/23 03:29:43;;;;;;;35.58;15.23;;;5.50;99.90;;;;;;4971220;28;20046;-75
2024/01/23 03:32:10;;;;;;;;;;;5.50;99.90;;;;;;4970773;28;20049;-75
2024/01/23 03:34:38;;;;;;;24.58;12.57;;;5.50;99.90;;;;;;4962917;28;19922;-75
2024/01/23 03:37:06;;;;;;;25.00;12.82;;;5.50;99.90;;;;;;4969274;28;20046;-75
2024/01/23 03:39:33;;;;;;;28.90;12.70;;;5.50;99.90;;;;;;4970455;28;20650;-75
2024/01/23 03:41:59;;;;;;;29.58;13.27;;;5.50;99.90;;;;;;4973865;28;20054;-74
2024/01/23 03:44:26;;;;;;;24.20;11.18;;;5.50;99.90;;;;;;4966398;28;20049;-74
2024/01/23 03:46:54;;;;;;;27.27;10.90;;;5.50;99.90;;;;;;4973329;28;20545;-75
2024/01/23 03:49:22;;;;;;;25.58;9.50;;;5.50;99.90;;;;;;4985146;28;20123;-75
2024/01/23 03:51:50;;;;;;;21.25;8.68;;;5.50;99.90;;;;;;4982642;28;20035;-75
2024/01/23 03:54:17;;;;;;;16.52;9.05;;;5.50;99.90;;;;;;4973279;28;20046;-75
2024/01/23 03:56:44;;;;;;;25.00;10.35;;;5.50;99.90;;;;;;4973114;28;20050;-75
2024/01/23 03:59:11;;;;;;;31.63;9.80;;;5.60;99.90;;;;;;4971284;28;20053;-75
2024/01/23 04:01:38;;;;;;;28.17;10.40;;;5.60;99.90;;;;;;4952474;28;20051;-75
2024/01/23 04:04:05;;;;;;;23.23;10.32;;;5.60;99.90;;;;;;4964852;28;20043;-76
2024/01/23 04:06:32;;;;;;;21.13;10.55;;;5.60;99.90;;;;;;4968665;28;20519;-75
2024/01/23 04:09:00;;;;;;;27.80;10.27;;;5.70;99.90;;;;;;4972551;28;20073;-74
2024/01/23 04:11:29;;;;;;;22.38;9.95;;;5.70;99.90;;;;;;4961038;28;20038;-75
2024/01/23 04:13:55;;;;;;;27.85;9.88;;;5.60;99.90;;;;;;4975358;28;20045;-74
2024/01/23 04:16:22;;;;;;;25.42;10.27;;;5.60;99.90;;;;;;4970121;28;20049;-75
2024/01/23 04:18:49;;;;;;;19.58;10.52;;;5.60;99.90;;;;;;4988697;28;20053;-75
2024/01/23 04:21:16;;;;;;;24.92;10.00;;;5.60;99.90;;;;;;4981119;28;20046;-75
2024/01/23 04:23:43;;;;;;;19.88;10.05;;;5.60;99.90;;;;;;4953950;28;20050;-74
2024/01/23 04:26:11;;;;;;;21.80;9.95;;;5.60;99.90;;;;;;4961197;28;20048;-74
2024/01/23 04:28:38;;;;;;;21.33;10.13;;;5.60;99.90;;;;;;4971191;28;20051;-75
2024/01/23 04:31:05;;;;;;;24.42;10.32;;;5.60;99.90;;;;;;4971723;28;20487;-76
2024/01/23 04:33:41;;;;;;;29.70;11.88;;;5.60;99.90;;;;;;4969202;28;20042;-76
2024/01/23 04:36:08;;;;;;;24.20;9.77;;;5.50;99.90;;;;;;4968846;28;20042;-75
2024/01/23 04:38:35;;;;;;;16.95;10.38;;;5.60;99.90;;;;;;4967259;28;20055;-76
2024/01/23 04:41:02;;;;;;;21.58;10.88;;;5.60;99.90;;;;;;4970280;28;20042;-76
2024/01/23 04:43:29;;;;;;;24.85;11.32;;;5.50;99.90;;;;;;4971157;28;20046;-75
2024/01/23 04:45:56;;;;;;;34.30;13.32;;;5.60;99.90;;;;;;4981299;28;20050;-77
2024/01/23 04:48:22;;;;;;;29.63;11.38;;;5.60;99.90;;;;;;4976781;28;20046;-76
2024/01/23 04:50:49;;;;;;;27.70;12.95;;;5.60;99.90;;;;;;4986391;28;20058;-77
2024/01/23 04:53:16;;;;;;;27.08;11.65;;;5.60;99.90;;;;;;4985310;28;20066;-74
2024/01/23 04:55:43;;;;;;;23.88;12.32;;;5.70;99.90;;;;;;4979222;28;20050;-75
2024/01/23 04:58:09;;;;;;;42.65;14.27;;;5.70;99.90;;;;;;4981675;28;20050;-75
2024/01/23 05:00:36;;;;;;;33.53;13.57;;;5.70;99.90;;;;;;4975404;28;20100;-76
2024/01/23 05:03:03;;;;;;;27.17;12.65;;;5.70;99.90;;;;;;4968866;28;20160;-74
2024/01/23 05:05:33;;;;;;;34.35;12.63;;;5.70;99.90;;;;;;4962821;28;20042;-75
2024/01/23 05:08:00;;;;;;;30.27;13.95;;;5.70;99.90;;;;;;4971082;28;20046;-75
2024/01/23 05:10:27;;;;;;;18.17;11.48;;;5.70;99.90;;;;;;4973283;28;20068;-75
2024/01/23 05:12:53;;;;;;;23.42;12.93;;;5.70;99.90;;;;;;4953825;28;20055;-76
2024/01/23 05:15:20;;;;;;;27.38;12.48;;;5.80;99.90;;;;;;4968107;28;20046;-76
2024/01/23 05:17:47;;;;;;;22.58;13.43;;;5.80;99.90;;;;;;4962358;28;20065;-76
2024/01/23 05:20:14;;;;;;;31.15;12.50;;;5.80;99.90;;;;;;4967341;28;20038;-76
2024/01/23 05:22:41;;;;;;;18.25;11.15;;;5.80;99.90;;;;;;4968610;28;20057;-76
2024/01/23 05:25:08;;;;;;;35.38;13.48;;;5.80;99.90;;;;;;4959488;28;20153;-76
2024/01/23 05:27:35;;;;;;;32.17;12.63;;;5.70;99.90;;;;;;4967550;28;20046;-74
2024/01/23 05:30:05;;;;;;;25.85;11.90;;;5.80;99.90;;;;;;4969279;28;20061;-75
2024/01/23 05:32:32;;;;;;;34.00;13.30;;;5.70;99.90;;;;;;4970769;28;20038;-74
2024/01/23 05:35:03;;;;;;;26.63;13.98;;;5.70;99.90;;;;;;4950008;28;20105;-76
2024/01/23 05:37:30;;;;;;;23.23;12.63;;;5.70;99.90;;;;;;4973801;28;20042;-76
2024/01/23 05:39:57;;;;;;;34.00;12.88;;;5.80;99.90;;;;;;4978725;28;20038;-75
2024/01/23 05:42:24;;;;;;;26.42;13.40;;;5.80;99.90;;;;;;4971016;28;20050;-76
2024/01/23 05:44:51;;;;;;;20.70;12.68;;;5.70;99.90;;;;;;4968033;28;20057;-75
2024/01/23 05:47:18;;;;;;;23.88;13.38;;;5.70;99.90;;;;;;4970807;28;20053;-76
2024/01/23 05:49:44;;;;;;;24.45;12.43;;;5.80;99.90;;;;;;4972803;28;20035;-77
2024/01/23 05:52:11;;;;;;;31.08;13.88;;;5.80;99.90;;;;;;4931771;28;20050;-75
2024/01/23 05:54:41;;;;;;;27.30;13.73;;;5.70;99.90;;;;;;4947764;28;20082;-74
2024/01/23 05:57:08;;;;;;;33.00;13.68;;;5.80;99.90;;;;;;4966835;28;20031;-77
2024/01/23 05:59:35;;;;;;;28.83;13.23;;;5.80;99.90;;;;;;4974152;28;20058;-75
2024/01/23 06:02:04;;;;;;;28.50;12.90;;;5.80;99.90;;;;;;4969742;28;20109;-75
2024/01/23 06:04:30;;;;;;;21.98;13.27;;;5.80;99.90;;;;;;4972328;28;20132;-76
2024/01/23 06:06:57;;;;;;;32.03;14.00;;;5.70;99.90;;;;;;4977324;28;20074;-75
2024/01/23 06:09:24;;;;;;;25.50;12.80;;;5.70;99.90;;;;;;4973685;28;20093;-76
2024/01/23 06:11:52;;;;;;;22.38;13.68;;;5.70;99.90;;;;;;4982419;28;20429;-74
2024/01/23 06:14:19;;;;;;;32.47;13.10;;;5.70;99.90;;;;;;4970744;28;20047;-76
2024/01/23 06:16:46;;;;;;;25.70;12.88;;;5.80;99.90;;;;;;4972834;28;20042;-76
2024/01/23 06:19:13;;;;;;;33.97;13.52;;;5.80;99.90;;;;;;4974138;28;20166;-76
2024/01/23 06:21:40;;;;;;;26.58;12.50;;;5.80;99.90;;;;;;4976751;28;20050;-75
2024/01/23 06:24:07;;;;;;;32.17;13.95;;;5.80;99.90;;;;;;4971430;28;20042;-75
2024/01/23 06:26:34;;;;;;;32.83;13.00;;;5.70;99.90;;;;;;4976341;28;20054;-75
2024/01/23 06:29:01;;;;;;;32.47;12.82;;;5.80;99.90;;;;;;4967751;28;20550;-76
2024/01/23 06:31:29;;;;;;;27.25;12.32;;;5.80;99.90;;;;;;4983923;28;20038;-75
2024/01/23 06:33:56;;;;;;;25.60;14.13;;;5.70;99.90;;;;;;4975417;28;20058;-75
2024/01/23 06:36:23;;;;;;;27.73;12.57;;;5.80;99.90;;;;;;4970799;28;20046;-75
2024/01/23 06:38:50;;;;;;;25.58;13.30;;;5.80;99.90;;;;;;4966916;28;20137;-75
2024/01/23 06:41:17;;;;;;;24.50;13.68;;;5.80;99.90;;;;;;4966081;28;20049;-75
2024/01/23 06:43:44;;;;;;;34.15;14.30;;;5.80;99.90;;;;;;4968976;28;20101;-76
2024/01/23 06:46:10;;;;;;;28.05;14.18;;;5.80;99.90;;;;;;4967959;28;20054;-75
2024/01/23 06:48:37;;;;;;;26.40;13.57;;;5.70;99.90;;;;;;4972413;28;20045;-76
2024/01/23 06:51:04;;;;;;;23.75;12.98;;;5.70;99.90;;;;;;4982183;28;20042;-75
2024/01/23 06:53:31;;;;;;;26.55;13.40;;;5.70;99.90;;;;;;4989561;28;20038;-76
2024/01/23 06:55:58;;;;;;;27.35;14.63;;;5.80;99.90;;;;;;4968659;28;20042;-74
2024/01/23 06:58:24;;;;;;;35.40;16.88;;;5.80;99.90;;;;;;4970654;28;20042;-75
2024/01/23 07:00:51;;;;;;;31.17;15.10;;;5.80;99.90;;;;;;4967673;28;20034;-75
2024/01/23 07:03:18;;;;;;;27.60;13.63;;;5.80;99.90;;;;;;4968124;28;20046;-75
2024/01/23 07:05:46;;;;;;;35.78;13.90;;;5.80;99.90;;;;;;4977687;28;20052;-75
2024/01/23 07:08:14;;;;;;;29.27;13.38;;;5.80;99.90;;;;;;4970499;28;20065;-75
2024/01/23 07:10:40;;;;;;;29.10;14.20;;;5.70;99.90;;;;;;4949533;28;20046;-73
2024/01/23 07:13:08;;;;;;;28.95;13.35;;;5.70;99.90;;;;;;4960823;28;20069;-74
2024/01/23 07:15:34;;;;;;;32.28;14.18;;;5.70;99.90;;;;;;4952109;28;20046;-75
2024/01/23 07:18:02;;;;;;;38.00;15.10;;;5.70;99.90;;;;;;4978640;28;20452;-75
2024/01/23 07:20:29;;;;;;;32.35;14.23;;;5.70;99.90;;;;;;4981402;28;20603;-76
2024/01/23 07:22:55;;;;;;;26.83;14.02;;;5.80;99.90;;;;;;4969581;28;20050;-75
2024/01/23 07:25:22;;;;;;;26.95;14.82;;;5.80;99.90;;;;;;4969672;28;20058;-77
2024/01/23 07:27:49;;;;;;;37.97;15.10;;;5.70;99.90;;;;;;4987102;28;20042;-76
2024/01/23 07:30:17;;;;;;;27.52;14.40;;;5.70;99.90;;;;;;4968164;28;20078;-76
2024/01/23 07:32:43;;;;;;;33.97;17.50;;;5.70;99.90;;;;;;4968658;28;20895;-76
2024/01/23 07:35:11;;;;;;;33.13;14.93;;;5.70;99.90;;;;;;4963677;28;20047;-76
2024/01/23 07:37:38;;;;;;;35.90;17.08;;;5.70;99.90;;;;;;4971838;28;20046;-76
2024/01/23 07:40:05;;;;;;;29.63;14.48;;;5.70;99.90;;;;;;4968801;28;20050;-76
2024/01/23 07:42:32;;;;;;;33.30;16.38;;;5.70;99.90;;;;;;4968082;28;20046;-76
2024/01/23 07:44:59;;;;;;;36.20;17.00;;;5.70;99.90;;;;;;4972893;28;20457;-76
2024/01/23 07:47:27;;;;;;;28.95;15.00;;;5.70;99.90;;;;;;4961491;28;20071;-76
2024/01/23 07:49:53;;;;;;;32.65;16.60;;;5.70;99.90;;;;;;4950517;28;20121;-75
2024/01/23 07:52:21;;;;;;;40.10;16.02;;;5.70;99.90;;;;;;4976598;28;20398;-76
2024/01/23 07:54:52;;;;;;;30.15;16.33;;;5.70;99.90;;;;;;4967277;28;20069;-75
2024/01/23 07:57:19;;;;;;;34.17;17.20;;;5.70;99.90;;;;;;4970501;28;20034;-77
2024/01/23 07:59:46;;;;;;;35.67;18.70;;;5.70;99.90;;;;;;4970366;28;20058;-76
2024/01/23 08:02:13;;;;;;;29.67;15.85;;;5.70;99.90;;;;;;4978525;28;20104;-75
2024/01/23 08:04:39;;;;;;;31.77;17.25;;;5.70;99.90;;;;;;4967292;28;20054;-76
2024/01/23 08:07:10;;;;;;;34.08;16.65;;;5.70;99.90;;;;;;4954050;28;20046;-75
2024/01/23 08:09:37;;;;;;;31.42;15.00;;;5.70;99.90;;;;;;4974357;28;20638;-76
2024/01/23 08:12:06;;;;;;;30.88;14.88;;;5.70;99.90;;;;;;4969424;28;20065;-77
2024/01/23 08:14:32;;;;;;;30.13;14.95;;;5.70;99.90;;;;;;4965589;28;20050;-76
2024/01/23 08:16:59;;;;;;;33.58;15.70;;;5.70;99.90;;;;;;4976059;28;20500;-76
2024/01/23 08:19:27;;;;;;;40.22;14.77;;;5.70;99.90;;;;;;4960438;28;20068;-76
2024/01/23 08:21:54;;;;;;;32.78;16.13;;;5.60;99.90;;;;;;4969896;28;20057;-74
2024/01/23 08:24:21;;;;;;;32.95;14.77;;;5.70;99.90;;;;;;4968265;28;20163;-74
2024/01/23 08:26:52;;;;;;;31.13;16.58;;;5.70;99.90;;;;;;4966250;28;20589;-75
2024/01/23 08:29:19;;;;;;;37.28;18.08;;;5.60;99.90;;;;;;4954748;28;20054;-75
2024/01/23 08:31:47;;;;;;;30.30;18.33;;;5.70;99.90;;;;;;4970516;28;20046;-74
2024/01/23 08:34:14;;;;;;;38.10;19.17;;;5.70;99.90;;;;;;4967301;28;20058;-75
2024/01/23 08:36:41;;;;;;;34.38;19.27;;;5.70;99.90;;;;;;4973622;28;20038;-76
2024/01/23 08:39:08;;;;;;;30.60;18.15;;;5.70;99.90;;;;;;4969644;28;20069;-75
2024/01/23 08:41:36;;;;;;;26.83;19.27;;;5.70;99.90;;;;;;4971265;28;20058;-75
2024/01/23 08:44:03;;;;;;;27.15;19.23;;;5.70;99.90;;;;;;4964737;28;20053;-75
2024/01/23 08:46:30;;;;;;;37.20;20.35;;;5.70;99.90;;;;;;4967204;28;20053;-76
2024/01/23 08:48:57;;;;;;;32.03;18.80;;;5.70;99.90;;;;;;4970190;28;20096;-75
2024/01/23 08:51:24;;;;;;;33.00;19.83;;;5.70;99.90;;;;;;4969186;28;20142;-75
2024/01/23 08:53:52;;;;;;;43.60;20.15;;;5.80;99.90;;;;;;4966713;28;20108;-75
2024/01/23 08:56:21;;;;;;;40.25;19.70;;;5.80;99.90;;;;;;4969692;28;20034;-75
2024/01/23 08:58:47;;;;;;;42.95;20.33;;;5.70;99.90;;;;;;4972484;28;20529;-76
2024/01/23 09:01:15;;;;;;;34.95;19.45;;;5.70;99.90;;;;;;4967689;28;20050;-75
2024/01/23 09:03:42;;;;;;;33.35;19.15;;;5.80;99.90;;;;;;4971647;28;20057;-75
2024/01/23 09:06:09;;;;;;;42.28;20.25;;;5.70;99.90;;;;;;4965850;28;21410;-75
2024/01/23 09:08:37;;;;;;;36.50;19.45;;;5.70;99.90;;;;;;4965834;28;20506;-76
2024/01/23 09:11:04;;;;;;;35.95;20.63;;;5.70;99.90;;;;;;4968516;28;20030;-75
2024/01/23 09:13:33;;;;;;;32.63;21.15;;;5.70;99.90;;;;;;4971249;28;21786;-76
2024/01/23 09:16:01;;;;;;;32.40;17.83;;;5.70;99.90;;;;;;4966935;28;20121;-75
2024/01/23 09:18:28;;;;;;;35.28;19.77;;;5.70;99.90;;;;;;4974130;28;20773;-75
2024/01/23 09:20:56;;;;;;;41.88;19.33;;;5.70;99.90;;;;;;4984841;28;20053;-75
2024/01/23 09:23:23;;;;;;;33.08;19.90;;;5.70;99.90;;;;;;4961872;28;21075;-74
2024/01/23 09:25:51;;;;;;;40.25;20.00;;;5.80;99.90;;;;;;4955927;28;20059;-73
2024/01/23 09:28:18;;;;;;;37.28;20.48;;;5.80;99.90;;;;;;4963766;28;20057;-75
2024/01/23 09:30:45;;;;;;;27.35;19.58;;;5.70;99.90;;;;;;4960157;28;20044;-78
2024/01/23 09:33:12;;;;;;;35.25;19.50;;;5.70;99.90;;;;;;4967354;28;20057;-74
2024/01/23 09:35:39;;;;;;;31.42;19.55;;;5.70;99.90;;;;;;4964315;28;20826;-75
2024/01/23 09:38:06;;;;;;;32.55;21.20;;;5.70;99.90;;;;;;4968867;28;20055;-75
2024/01/23 09:40:33;;;;;;;40.33;23.00;;;5.80;99.90;;;;;;4975030;28;20050;-74
2024/01/23 09:43:00;;;;;;;34.08;21.15;;;5.80;99.90;;;;;;4984936;28;20043;-73
2024/01/23 09:45:28;;;;;;;45.60;21.80;;;5.80;99.90;;;;;;4970247;28;20530;-76
2024/01/23 09:47:56;;;;;;;41.97;22.67;;;5.80;99.90;;;;;;4969848;28;20826;-74
2024/01/23 09:50:27;;;;;;;40.05;25.63;;;5.90;99.90;;;;;;4970028;28;20052;-74
2024/01/23 09:52:57;;;;;;;52.35;23.42;;;5.90;99.90;;;;;;4973919;28;20050;-74
2024/01/23 09:55:23;;;;;;;36.63;22.48;;;5.90;99.90;;;;;;4983994;28;20122;-74
2024/01/23 09:57:51;;;;;;;39.15;22.90;;;5.90;99.90;;;;;;4972730;28;20053;-75
2024/01/23 10:00:18;;;;;;;44.58;23.92;;;5.90;99.90;;;;;;4972304;28;20699;-75
2024/01/23 10:02:46;;;;;;;37.90;22.88;;;6.00;99.90;;;;;;4973883;28;20429;-76
2024/01/23 10:05:16;;;;;;;42.40;27.35;;;6.00;99.90;;;;;;4971353;28;20054;-76
2024/01/23 10:07:43;;;;;;;40.10;23.25;;;6.10;99.90;;;;;;4991445;28;20692;-75
2024/01/23 10:10:14;;;;;;;38.30;23.00;;;6.00;99.90;;;;;;4977984;28;20042;-75
2024/01/23 10:12:44;;;;;;;47.28;24.45;;;5.90;99.90;;;;;;4968179;28;20051;-75
2024/01/23 10:15:16;;;;;;;39.75;24.17;;;5.90;99.90;;;;;;4969913;28;20046;-76
2024/01/23 10:17:44;;;;;;;38.78;24.30;;;5.90;99.90;;;;;;4971885;28;20617;-74
2024/01/23 10:20:13;;;;;;;39.08;22.25;;;5.90;99.90;;;;;;4971311;28;20053;-74
2024/01/23 10:22:40;;;;;;;40.92;25.05;;;5.90;99.90;;;;;;4972406;28;20061;-75
2024/01/23 10:25:20;;;;;;;45.33;25.60;;;5.90;99.90;;;;;;4971650;28;20046;-75
2024/01/23 10:27:53;;;;;;;50.15;26.58;;;6.00;99.90;;;;;;4991917;28;20050;-75
2024/01/23 10:30:20;;;;;;;50.47;25.60;;;6.00;99.90;;;;;;4965027;28;20096;-74
2024/01/23 10:32:47;;;;;;;45.03;26.60;;;6.00;99.90;;;;;;4976743;28;20058;-75
2024/01/23 10:35:14;;;;;;;49.22;25.00;;;6.00;99.90;;;;;;4969981;28;20575;-74
2024/01/23 10:37:44;;;;;;;54.47;25.17;;;6.00;99.90;;;;;;4969093;28;20046;-75
2024/01/23 10:40:13;;;;;;;53.95;27.92;;;6.00;99.90;;;;;;4970923;28;20050;-77
2024/01/23 10:42:40;;;;;;;41.78;23.77;;;6.00;99.90;;;;;;4973594;28;20081;-75
2024/01/23 10:45:16;;;;;;;41.55;22.83;;;6.10;99.90;;;;;;4958010;28;20047;-75
2024/01/23 10:47:46;;;;;;;42.75;23.52;;;6.00;99.90;;;;;;4970376;28;20088;-74
2024/01/23 10:50:14;;;;;;;47.85;23.48;;;5.90;99.90;;;;;;4981626;28;20622;-75
2024/01/23 10:52:45;;;;;;;43.85;25.95;;;5.90;99.90;;;;;;4970409;28;20046;-74
2024/01/23 10:55:13;;;;;;;49.25;25.35;;;5.80;99.90;;;;;;4971965;28;20129;-75
2024/01/23 10:57:43;;;;;;;47.28;26.33;;;5.90;99.90;;;;;;4973663;28;20058;-74
2024/01/23 11:00:13;;;;;;;51.30;24.88;;;5.90;99.90;;;;;;4982075;28;20073;-74
2024/01/23 11:02:57;;;;;;;49.50;24.67;;;5.90;99.90;;;;;;4972759;28;20789;-73
2024/01/23 11:05:32;;;;;;;42.88;25.88;;;5.90;99.90;;;;;;4971957;28;20058;-75
2024/01/23 11:08:09;;;;;;;;;;;5.80;99.90;;;;;;4972774;28;20201;-73
2024/01/23 11:10:44;;;;;;;41.38;21.85;;;5.80;99.90;;;;;;4970777;28;19922;-75
2024/01/23 11:13:32;;;;;;;40.42;22.02;;;5.80;99.90;;;;;;4965646;28;20094;-74
2024/01/23 11:16:07;;;;;;;35.05;21.75;;;5.80;99.90;;;;;;4963409;28;20057;-74
2024/01/23 11:18:35;;;;;;;40.00;22.83;;;5.80;99.90;;;;;;4972782;28;20082;-74
2024/01/23 11:21:05;;;;;;;52.50;25.35;;;5.90;99.90;;;;;;4971773;28;20042;-75
2024/01/23 11:23:35;;;;;;;35.60;23.33;;;5.90;99.90;;;;;;4971418;28;20656;-75
2024/01/23 11:26:22;;;;;;;43.88;25.40;;;5.80;99.90;;;;;;4964579;28;20070;-76
2024/01/23 11:28:52;;;;;;;56.25;28.42;;;5.90;99.90;;;;;;4955752;28;20043;-76
2024/01/23 11:31:23;;;;;;;40.60;22.80;;;5.90;99.90;;;;;;4960227;28;20058;-74
2024/01/23 11:33:52;;;;;;;49.22;24.67;;;5.90;99.90;;;;;;4953764;28;20093;-75
2024/01/23 11:36:24;;;;;;;44.10;25.35;;;5.90;99.90;;;;;;4964071;28;20038;-75
2024/01/23 11:38:52;;;;;;;44.10;22.13;;;5.90;99.90;;;;;;4973137;28;20138;-74
2024/01/23 11:41:27;;;;;;;38.33;22.98;;;5.90;99.90;;;;;;4968936;28;20830;-75
2024/01/23 11:44:05;;;;;;;38.00;23.88;;;5.90;99.90;;;;;;4967485;28;20066;-76
2024/01/23 11:46:35;;;;;;;51.47;27.00;;;6.00;99.90;;;;;;4981872;28;20497;-74
2024/01/23 11:49:02;;;;;;;48.72;26.45;;;5.90;99.90;;;;;;4972896;28;20109;-73
2024/01/23 11:51:30;;;;;;;46.08;25.63;;;5.90;99.90;;;;;;4970428;28;20596;-75
2024/01/23 11:53:58;;;;;;;45.45;25.65;;;6.00;99.90;;;;;;4972263;28;20061;-76
2024/01/23 11:56:28;;;;;;;42.20;25.58;;;5.90;99.90;;;;;;4967586;28;20145;-75
2024/01/23 11:58:58;;;;;;;34.75;22.63;;;6.00;99.90;;;;;;4973423;28;20069;-76
2024/01/23 12:01:29;;;;;;;43.60;23.92;;;6.10;99.90;;;;;;4968938;28;20046;-77
2024/01/23 12:03:57;;;;;;;33.95;22.33;;;6.10;99.90;;;;;;4964944;28;20042;-76
2024/01/23 12:06:28;;;;;;;36.90;25.00;;;6.00;99.90;;;;;;4981665;28;21149;-76
2024/01/23 12:08:55;;;;;;;42.17;23.25;;;6.10;99.90;;;;;;4974196;28;20076;-75
2024/01/23 12:11:23;;;;;;;46.55;24.98;;;6.10;99.90;;;;;;4972040;28;20038;-73
2024/01/23 12:13:51;;;;;;;44.22;24.65;;;6.10;99.90;;;;;;4968875;28;20042;-75
2024/01/23 12:16:18;;;;;;;40.88;24.33;;;6.10;99.90;;;;;;4975003;28;21509;-74
2024/01/23 12:18:55;;;;;;;38.55;25.45;;;6.30;99.90;;;;;;4971891;28;20046;-74
2024/01/23 12:21:22;;;;;;;32.50;23.88;;;6.30;99.90;;;;;;4973723;28;20053;-76
2024/01/23 12:23:49;;;;;;;40.15;24.35;;;6.20;99.90;;;;;;4953790;28;20118;-75
2024/01/23 12:26:36;;;;;;;44.53;24.88;;;6.30;99.90;;;;;;4962051;28;20043;-76
2024/01/23 12:29:04;;;;;;;35.38;24.15;;;6.30;99.90;;;;;;4962143;28;20057;-76
2024/01/23 12:31:31;;;;;;;40.20;24.40;;;6.40;99.90;;;;;;4974704;28;20049;-74
2024/01/23 12:33:58;;;;;;;45.40;25.13;;;6.40;99.90;;;;;;4982613;28;20035;-74
2024/01/23 12:36:28;;;;;;;42.13;25.55;;;6.40;99.90;;;;;;4973888;28;21105;-74
2024/01/23 12:38:56;;;;;;;40.58;25.27;;;6.40;99.90;;;;;;4985884;28;20042;-75
2024/01/23 12:41:24;;;;;;;36.60;26.90;;;6.40;99.90;;;;;;4970826;28;20116;-76